Tinian Mariana Islands, Northern Mariana Islands
Current Conditions -  °F | °C
As of 6:54 PM on Thursday 18 Dec 2014 (Local Time) from PGSN Reporting Station
Broken Clouds Broken Clouds  
Wind Chill: 80°   Ceiling: 3600
Heat Index: 85°   Visibility: 10mi
Dew Point: 74°   Wind: 12mph
Humidity: 81%   Direction: 50°NE
Pressure: 29.95"   Gusts: NA
Location:  15.084°N, 145.652°E
Report Text: PGSN 180854Z 05010KT 10SM SCT027 BKN036 BKN070 27/23 A2995 RMK AO2 SLP162 6//// T02670233 51017 PNO $
Loading
Personal Weather Stations






























Interactive Weather Map New forecast layout! Learn more

10-Day Weather Forecast

Advertisements
Track Severe Weather on mobile